Time,TemperatureF,DewpointF,PressureIn,WindDirection,WindDirectionDegrees,WindSpeedMPH,WindSpeedGustMPH,Humidity,HourlyPrecipIn,Conditions,Clouds,dailyrainin,SoftwareType,DateUTC
2013-02-06 00:02:00,34.2,29.8,29.51,WSW,248,4.5,6.7,84,0.00,,,0.00,WUHU216HW,2013-02-05 23:02:00,
2013-02-06 00:07:00,34.2,29.8,29.51,SW,225,5.1,6.9,84,0.00,,,0.00,WUHU216HW,2013-02-05 23:07:00,
2013-02-06 00:12:00,34.2,29.8,29.51,SW,225,7.6,7.6,84,0.00,,,0.00,WUHU216HW,2013-02-05 23:12:00,
2013-02-06 00:17:00,34.2,29.8,29.51,WSW,248,4.9,7.6,84,0.00,,,0.00,WUHU216HW,2013-02-05 23:17:00,
2013-02-06 00:22:00,34.0,29.6,29.51,WSW,248,4.3,6.9,84,0.00,,,0.00,WUHU216HW,2013-02-05 23:22:00,
2013-02-06 00:27:00,33.8,29.2,29.51,WSW,248,5.6,6.3,83,0.00,,,0.00,WUHU216HW,2013-02-05 23:27:00,
2013-02-06 00:32:00,34.0,29.4,29.51,WSW,248,4.7,6.7,83,0.00,,,0.00,WUHU216HW,2013-02-05 23:32:00,
2013-02-06 00:37:00,34.0,29.4,29.51,WSW,248,3.6,6.7,83,0.00,,,0.00,WUHU216HW,2013-02-05 23:37:00,
2013-02-06 00:42:00,34.0,29.4,29.51,SW,225,2.9,6.9,83,0.00,,,0.00,WUHU216HW,2013-02-05 23:42:00,
2013-02-06 00:47:00,33.8,28.8,29.51,WSW,248,3.8,6.9,82,0.00,,,0.00,WUHU216HW,2013-02-05 23:47:00,
2013-02-06 00:52:00,33.7,28.7,29.51,WSW,248,4.7,4.9,82,0.00,,,0.00,WUHU216HW,2013-02-05 23:52:00,
2013-02-06 00:57:00,33.7,29.0,29.51,WSW,248,4.5,6.3,83,0.00,,,0.00,WUHU216HW,2013-02-05 23:57:00,
2013-02-06 01:02:00,33.5,28.8,29.51,WSW,248,4.5,6.3,83,0.00,,,0.00,WUHU216HW,2013-02-06 00:02:00,
2013-02-06 01:07:00,33.5,28.8,29.51,SW,225,4.5,5.4,83,0.00,,,0.00,WUHU216HW,2013-02-06 00:07:00,
2013-02-06 01:12:00,33.5,28.8,29.51,WSW,248,2.9,4.7,83,0.00,,,0.00,WUHU216HW,2013-02-06 00:12:00,
2013-02-06 01:17:00,33.5,28.8,29.51,WSW,248,3.4,4.7,83,0.00,,,0.00,WUHU216HW,2013-02-06 00:17:00,
2013-02-06 01:22:00,33.5,28.8,29.51,SW,225,2.5,3.8,83,0.00,,,0.00,WUHU216HW,2013-02-06 00:22:00,
2013-02-06 01:27:00,33.5,28.8,29.51,SW,225,2.5,3.8,83,0.00,,,0.00,WUHU216HW,2013-02-06 00:27:00,
2013-02-06 01:32:00,33.5,28.8,29.51,SW,225,1.8,2.9,83,0.00,,,0.00,WUHU216HW,2013-02-06 00:32:00,
2013-02-06 01:37:00,33.5,28.8,29.50,SW,225,1.3,2.5,83,0.00,,,0.00,WUHU216HW,2013-02-06 00:37:00,
2013-02-06 01:42:00,33.5,28.8,29.50,SW,225,2.5,2.9,83,0.00,,,0.00,WUHU216HW,2013-02-06 00:42:00,
2013-02-06 01:47:00,33.5,28.8,29.50,SW,225,3.6,3.8,83,0.00,,,0.00,WUHU216HW,2013-02-06 00:47:00,
2013-02-06 01:52:00,33.5,28.8,29.50,SW,225,2.5,3.8,83,0.00,,,0.00,WUHU216HW,2013-02-06 00:52:00,
2013-02-06 01:57:00,33.5,28.8,29.51,SW,225,1.8,4.0,83,0.00,,,0.00,WUHU216HW,2013-02-06 00:57:00,
2013-02-06 02:02:00,33.5,28.8,29.51,WSW,248,2.0,4.0,83,0.00,,,0.00,WUHU216HW,2013-02-06 01:02:00,
2013-02-06 02:07:00,33.7,29.0,29.51,WSW,248,1.8,2.7,83,0.00,,,0.00,WUHU216HW,2013-02-06 01:07:00,
2013-02-06 02:12:00,33.8,29.2,29.51,WSW,248,3.4,4.5,83,0.00,,,0.00,WUHU216HW,2013-02-06 01:12:00,
2013-02-06 02:17:00,33.8,29.2,29.50,SSW,203,2.5,4.5,83,0.00,,,0.00,WUHU216HW,2013-02-06 01:17:00,
2013-02-06 02:22:00,33.7,29.0,29.50,SW,225,5.6,5.6,83,0.00,,,0.00,WUHU216HW,2013-02-06 01:22:00,
2013-02-06 02:27:00,33.7,29.0,29.50,SW,225,2.9,5.6,83,0.00,,,0.00,WUHU216HW,2013-02-06 01:27:00,
2013-02-06 02:32:00,33.7,29.0,29.51,SSW,203,2.9,5.6,83,0.00,,,0.00,WUHU216HW,2013-02-06 01:32:00,
2013-02-06 02:37:00,33.7,29.0,29.51,SSW,203,3.4,4.5,83,0.00,,,0.00,WUHU216HW,2013-02-06 01:37:00,
2013-02-06 02:42:00,33.7,29.0,29.50,SSW,203,2.9,4.5,83,0.00,,,0.00,WUHU216HW,2013-02-06 01:42:00,
2013-02-06 02:47:00,33.7,29.0,29.50,SSW,203,2.5,4.7,83,0.00,,,0.00,WUHU216HW,2013-02-06 01:47:00,
2013-02-06 02:52:00,33.7,29.0,29.50,SSE,158,4.3,4.7,83,0.00,,,0.00,WUHU216HW,2013-02-06 01:52:00,
2013-02-06 02:57:00,33.5,28.8,29.50,SW,225,4.7,4.7,83,0.00,,,0.00,WUHU216HW,2013-02-06 01:57:00,
2013-02-06 03:02:00,33.5,28.8,29.49,South,180,2.5,4.9,83,0.00,,,0.00,WUHU216HW,2013-02-06 02:02:00,
2013-02-06 03:07:00,33.7,29.0,29.49,SW,225,4.7,6.7,83,0.00,,,0.00,WUHU216HW,2013-02-06 02:07:00,
2013-02-06 03:12:00,33.8,29.2,29.49,South,180,4.0,6.7,83,0.00,,,0.00,WUHU216HW,2013-02-06 02:12:00,
2013-02-06 03:17:00,33.8,29.2,29.49,SSW,203,3.4,6.0,83,0.00,,,0.00,WUHU216HW,2013-02-06 02:17:00,
2013-02-06 03:22:00,34.0,29.6,29.49,SSW,203,3.8,8.3,84,0.00,,,0.00,WUHU216HW,2013-02-06 02:22:00,
2013-02-06 03:27:00,34.0,29.6,29.48,SSW,203,5.6,8.3,84,0.00,,,0.00,WUHU216HW,2013-02-06 02:27:00,
2013-02-06 03:32:00,34.0,29.6,29.48,SSE,158,4.7,6.3,84,0.00,,,0.00,WUHU216HW,2013-02-06 02:32:00,
2013-02-06 03:37:00,34.0,29.6,29.48,SSW,203,3.8,6.9,84,0.00,,,0.00,WUHU216HW,2013-02-06 02:37:00,
2013-02-06 03:42:00,34.0,29.6,29.48,SSW,203,6.7,6.9,84,0.00,,,0.00,WUHU216HW,2013-02-06 02:42:00,
2013-02-06 03:47:00,34.0,29.6,29.48,SSE,158,2.9,6.9,84,0.00,,,0.00,WUHU216HW,2013-02-06 02:47:00,
2013-02-06 03:52:00,34.0,29.6,29.48,SSW,203,5.8,6.7,84,0.00,,,0.00,WUHU216HW,2013-02-06 02:52:00,
2013-02-06 03:58:00,34.2,29.8,29.48,South,180,1.8,6.7,84,0.00,,,0.00,WUHU216HW,2013-02-06 02:58:00,
2013-02-06 04:03:00,34.2,29.8,29.48,SSW,203,6.9,6.9,84,0.00,,,0.00,WUHU216HW,2013-02-06 03:03:00,
2013-02-06 04:08:00,34.2,29.8,29.48,SSW,203,6.9,6.9,84,0.00,,,0.00,WUHU216HW,2013-02-06 03:08:00,
2013-02-06 04:13:00,34.2,29.8,29.48,WSW,248,3.4,7.6,84,0.00,,,0.00,WUHU216HW,2013-02-06 03:13:00,
2013-02-06 04:18:00,34.2,29.8,29.48,SW,225,4.7,7.6,84,0.00,,,0.00,WUHU216HW,2013-02-06 03:18:00,
2013-02-06 04:23:00,34.2,29.8,29.48,SSW,203,7.2,7.6,84,0.00,,,0.00,WUHU216HW,2013-02-06 03:23:00,
2013-02-06 04:28:00,34.2,29.8,29.48,SSW,203,4.5,7.2,84,0.00,,,0.00,WUHU216HW,2013-02-06 03:28:00,
2013-02-06 04:33:00,34.2,29.8,29.48,SW,225,7.6,7.6,84,0.00,,,0.00,WUHU216HW,2013-02-06 03:33:00,
2013-02-06 04:38:00,34.2,29.8,29.48,SW,225,4.7,8.7,84,0.00,,,0.00,WUHU216HW,2013-02-06 03:38:00,
2013-02-06 04:43:00,34.2,29.8,29.48,WSW,248,4.9,8.7,84,0.00,,,0.00,WUHU216HW,2013-02-06 03:43:00,
2013-02-06 04:48:00,34.2,29.8,29.48,SW,225,5.8,7.6,84,0.00,,,0.00,WUHU216HW,2013-02-06 03:48:00,
2013-02-06 04:53:00,34.2,30.1,29.48,WSW,248,4.0,7.6,85,0.00,,,0.00,WUHU216HW,2013-02-06 03:53:00,
2013-02-06 04:58:00,34.2,29.8,29.48,SW,225,2.7,6.9,84,0.00,,,0.00,WUHU216HW,2013-02-06 03:58:00,
2013-02-06 05:03:00,34.2,29.8,29.48,WSW,248,6.3,9.2,84,0.00,,,0.00,WUHU216HW,2013-02-06 04:03:00,
2013-02-06 05:08:00,34.2,29.8,29.49,WSW,248,5.8,9.2,84,0.00,,,0.00,WUHU216HW,2013-02-06 04:08:00,
2013-02-06 05:13:00,34.2,29.8,29.49,West,270,5.4,8.1,84,0.00,,,0.00,WUHU216HW,2013-02-06 04:13:00,
2013-02-06 05:18:00,34.4,30.0,29.49,WNW,293,5.4,7.8,84,0.00,,,0.00,WUHU216HW,2013-02-06 04:18:00,
2013-02-06 05:23:00,34.4,30.0,29.49,WSW,248,4.5,7.8,84,0.00,,,0.00,WUHU216HW,2013-02-06 04:23:00,
2013-02-06 05:28:00,34.6,30.4,29.50,WNW,293,7.2,7.2,85,0.00,,,0.00,WUHU216HW,2013-02-06 04:28:00,
2013-02-06 05:33:00,34.4,30.0,29.49,West,270,3.6,7.2,84,0.00,,,0.00,WUHU216HW,2013-02-06 04:33:00,
2013-02-06 05:38:00,34.4,30.0,29.49,West,270,2.9,7.2,84,0.00,,,0.00,WUHU216HW,2013-02-06 04:38:00,
2013-02-06 05:43:00,34.4,30.0,29.50,West,270,2.9,6.3,84,0.00,,,0.00,WUHU216HW,2013-02-06 04:43:00,
2013-02-06 05:48:00,34.2,30.1,29.50,West,270,3.6,4.5,85,0.00,,,0.00,WUHU216HW,2013-02-06 04:48:00,
2013-02-06 05:53:00,34.0,29.9,29.50,West,270,4.7,5.6,85,0.00,,,0.00,WUHU216HW,2013-02-06 04:53:00,
2013-02-06 05:58:00,34.0,29.9,29.50,WSW,248,5.1,6.3,85,0.00,,,0.00,WUHU216HW,2013-02-06 04:58:00,
2013-02-06 06:00:00,33.8,29.7,29.50,West,270,6.5,6.5,85,0.00,,,0.00,WUHU216HW,2013-02-06 05:00:00,
2013-02-06 06:05:00,33.7,29.5,29.50,West,270,4.0,7.2,85,0.00,,,0.00,WUHU216HW,2013-02-06 05:05:00,
2013-02-06 06:10:00,33.5,29.7,29.50,WSW,248,5.6,7.2,86,0.00,,,0.00,WUHU216HW,2013-02-06 05:10:00,
2013-02-06 06:15:00,33.1,29.6,29.50,WNW,293,4.7,6.9,87,0.00,,,0.00,WUHU216HW,2013-02-06 05:15:00,
2013-02-06 06:20:00,33.1,29.6,29.50,WNW,293,4.7,6.9,87,0.00,,,0.00,WUHU216HW,2013-02-06 05:20:00,
2013-02-06 06:25:00,32.9,29.8,29.50,WSW,248,4.0,6.9,88,0.00,,,0.00,WUHU216HW,2013-02-06 05:25:00,
2013-02-06 06:30:00,32.8,29.6,29.50,WSW,248,5.4,5.8,88,0.00,,,0.00,WUHU216HW,2013-02-06 05:30:00,
2013-02-06 06:35:00,32.8,29.4,29.50,WSW,248,4.0,5.8,87,0.00,,,0.00,WUHU216HW,2013-02-06 05:35:00,
2013-02-06 06:40:00,32.6,29.2,29.50,WSW,248,2.7,5.4,87,0.00,,,0.00,WUHU216HW,2013-02-06 05:40:00,
2013-02-06 06:45:00,32.6,29.2,29.50,WSW,248,4.0,4.7,87,0.00,,,0.00,WUHU216HW,2013-02-06 05:45:00,
2013-02-06 06:50:00,32.4,29.0,29.51,NW,315,3.1,4.7,87,0.00,,,0.00,WUHU216HW,2013-02-06 05:50:00,
2013-02-06 06:55:00,32.2,28.8,29.50,West,270,2.2,4.0,87,0.00,,,0.00,WUHU216HW,2013-02-06 05:55:00,
2013-02-06 07:00:00,32.2,28.5,29.50,West,270,1.1,3.1,86,0.00,,,0.00,WUHU216HW,2013-02-06 06:00:00,
2013-02-06 07:05:00,32.0,28.4,29.51,WSW,248,1.8,2.5,86,0.00,,,0.00,WUHU216HW,2013-02-06 06:05:00,
2013-02-06 07:10:00,31.9,28.2,29.51,SW,225,1.3,2.2,86,0.00,,,0.00,WUHU216HW,2013-02-06 06:10:00,
2013-02-06 07:15:00,31.7,28.0,29.51,SW,225,2.0,2.0,86,0.00,,,0.00,WUHU216HW,2013-02-06 06:15:00,
2013-02-06 07:20:00,31.3,27.6,29.51,WSW,248,1.8,2.5,86,0.00,,,0.00,WUHU216HW,2013-02-06 06:20:00,
2013-02-06 07:25:00,31.3,27.6,29.51,WSW,248,1.3,2.5,86,0.00,,,0.00,WUHU216HW,2013-02-06 06:25:00,
2013-02-06 07:30:00,31.1,27.5,29.52,SW,225,1.1,2.0,86,0.00,,,0.00,WUHU216HW,2013-02-06 06:30:00,
2013-02-06 07:35:00,30.8,27.1,29.52,SSW,203,1.6,1.6,86,0.00,,,0.00,WUHU216HW,2013-02-06 06:35:00,
2013-02-06 07:40:00,30.6,26.9,29.52,SW,225,1.1,1.6,86,0.00,,,0.00,WUHU216HW,2013-02-06 06:40:00,
2013-02-06 07:45:00,30.4,26.7,29.52,WSW,248,3.4,3.4,86,0.00,,,0.00,WUHU216HW,2013-02-06 06:45:00,
2013-02-06 07:50:00,30.2,26.6,29.52,WSW,248,3.4,3.4,86,0.00,,,0.00,WUHU216HW,2013-02-06 06:50:00,
2013-02-06 07:55:00,30.2,26.6,29.52,WSW,248,4.0,4.0,86,0.00,,,0.00,WUHU216HW,2013-02-06 06:55:00,
2013-02-06 08:00:00,30.2,26.6,29.52,WSW,248,4.0,4.3,86,0.00,,,0.00,WUHU216HW,2013-02-06 07:00:00,
2013-02-06 08:05:00,30.4,26.7,29.52,WNW,293,4.0,4.3,86,0.00,,,0.00,WUHU216HW,2013-02-06 07:05:00,
2013-02-06 08:10:00,30.6,26.9,29.52,WSW,248,4.0,4.7,86,0.00,,,0.00,WUHU216HW,2013-02-06 07:10:00,
2013-02-06 08:15:00,30.6,26.9,29.52,WSW,248,4.5,4.9,86,0.00,,,0.00,WUHU216HW,2013-02-06 07:15:00,
2013-02-06 08:20:00,30.6,26.9,29.52,WSW,248,2.5,4.9,86,0.00,,,0.00,WUHU216HW,2013-02-06 07:20:00,
2013-02-06 08:25:00,30.8,27.1,29.52,WSW,248,2.2,4.5,86,0.00,,,0.00,WUHU216HW,2013-02-06 07:25:00,
2013-02-06 08:30:00,30.8,27.1,29.52,WSW,248,3.6,3.6,86,0.00,,,0.00,WUHU216HW,2013-02-06 07:30:00,
2013-02-06 08:35:00,30.8,27.1,29.52,WSW,248,1.8,3.6,86,0.00,,,0.00,WUHU216HW,2013-02-06 07:35:00,
2013-02-06 08:40:00,31.0,27.3,29.52,West,270,2.5,3.6,86,0.00,,,0.00,WUHU216HW,2013-02-06 07:40:00,
2013-02-06 08:45:00,31.1,27.5,29.52,West,270,3.4,3.8,86,0.00,,,0.00,WUHU216HW,2013-02-06 07:45:00,
2013-02-06 08:50:00,31.1,27.5,29.52,West,270,2.9,4.3,86,0.00,,,0.00,WUHU216HW,2013-02-06 07:50:00,
2013-02-06 08:55:00,31.1,27.5,29.52,West,270,2.2,4.7,86,0.00,,,0.00,WUHU216HW,2013-02-06 07:55:00,
2013-02-06 09:00:00,31.1,27.5,29.52,WSW,248,2.0,4.7,86,0.00,,,0.00,WUHU216HW,2013-02-06 08:00:00,
2013-02-06 09:05:00,31.1,27.5,29.52,West,270,2.2,4.7,86,0.00,,,0.00,WUHU216HW,2013-02-06 08:05:00,
2013-02-06 09:10:00,31.3,27.6,29.52,WSW,248,2.2,4.0,86,0.00,,,0.00,WUHU216HW,2013-02-06 08:10:00,
2013-02-06 09:15:00,31.3,27.6,29.52,West,270,2.9,3.4,86,0.00,,,0.00,WUHU216HW,2013-02-06 08:15:00,
2013-02-06 09:20:00,31.5,27.8,29.52,West,270,2.9,3.4,86,0.00,,,0.00,WUHU216HW,2013-02-06 08:20:00,
2013-02-06 09:25:00,31.7,28.0,29.52,West,270,1.8,3.4,86,0.00,,,0.00,WUHU216HW,2013-02-06 08:25:00,
2013-02-06 09:30:00,31.9,28.2,29.52,WNW,293,2.2,4.3,86,0.00,,,0.00,WUHU216HW,2013-02-06 08:30:00,
2013-02-06 09:35:00,32.0,28.4,29.52,NW,315,4.0,4.3,86,0.00,,,0.00,WUHU216HW,2013-02-06 08:35:00,
2013-02-06 09:40:00,32.4,28.7,29.52,West,270,4.0,4.5,86,0.00,,,0.00,WUHU216HW,2013-02-06 08:40:00,
2013-02-06 09:45:00,32.4,28.5,29.52,West,270,3.1,4.5,85,0.00,,,0.00,WUHU216HW,2013-02-06 08:45:00,
2013-02-06 09:50:00,32.8,28.7,29.52,West,270,3.6,4.0,85,0.00,,,0.00,WUHU216HW,2013-02-06 08:50:00,
2013-02-06 09:55:00,32.8,28.7,29.53,WSW,248,4.9,5.4,85,0.00,,,0.00,WUHU216HW,2013-02-06 08:55:00,
2013-02-06 10:00:00,32.9,28.6,29.53,West,270,4.3,5.4,84,0.00,,,0.00,WUHU216HW,2013-02-06 09:00:00,
2013-02-06 10:05:00,33.1,28.8,29.53,West,270,3.4,5.4,84,0.00,,,0.00,WUHU216HW,2013-02-06 09:05:00,
2013-02-06 10:10:00,33.3,28.9,29.53,NW,315,2.7,4.3,84,0.00,,,0.00,WUHU216HW,2013-02-06 09:10:00,
2013-02-06 10:15:00,33.5,28.8,29.53,West,270,2.5,4.0,83,0.00,,,0.00,WUHU216HW,2013-02-06 09:15:00,
2013-02-06 10:20:00,33.7,29.0,29.53,WSW,248,1.3,4.7,83,0.00,,,0.00,WUHU216HW,2013-02-06 09:20:00,
2013-02-06 10:25:00,33.8,28.8,29.53,NW,315,3.4,4.7,82,0.00,,,0.00,WUHU216HW,2013-02-06 09:25:00,
2013-02-06 10:30:00,34.2,29.2,29.53,West,270,4.3,4.9,82,0.00,,,0.00,WUHU216HW,2013-02-06 09:30:00,
2013-02-06 10:35:00,34.4,29.3,29.53,WNW,293,2.5,4.9,82,0.00,,,0.00,WUHU216HW,2013-02-06 09:35:00,
2013-02-06 10:40:00,34.6,29.5,29.53,West,270,1.8,4.3,82,0.00,,,0.00,WUHU216HW,2013-02-06 09:40:00,
2013-02-06 10:45:00,34.9,29.6,29.53,WSW,248,2.7,4.7,81,0.00,,,0.00,WUHU216HW,2013-02-06 09:45:00,
2013-02-06 10:50:00,35.1,29.5,29.53,West,270,3.8,4.7,80,0.00,,,0.00,WUHU216HW,2013-02-06 09:50:00,
2013-02-06 10:55:00,35.3,29.3,29.53,West,270,2.5,5.1,79,0.00,,,0.00,WUHU216HW,2013-02-06 09:55:00,
2013-02-06 11:00:00,35.6,29.4,29.53,WSW,248,4.0,5.1,78,0.00,,,0.00,WUHU216HW,2013-02-06 10:00:00,
2013-02-06 11:05:00,35.8,29.3,29.53,SW,225,2.7,5.1,77,0.00,,,0.00,WUHU216HW,2013-02-06 10:05:00,
2013-02-06 11:10:00,36.0,29.2,29.53,West,270,4.7,5.6,76,0.00,,,0.00,WUHU216HW,2013-02-06 10:10:00,
2013-02-06 11:15:00,36.2,28.6,29.53,WSW,248,4.0,6.0,74,0.00,,,0.00,WUHU216HW,2013-02-06 10:15:00,
2013-02-06 11:20:00,36.4,29.2,29.52,West,270,6.9,6.9,75,0.00,,,0.00,WUHU216HW,2013-02-06 10:20:00,
2013-02-06 11:25:00,36.7,29.5,29.52,West,270,3.1,10.3,75,0.00,,,0.00,WUHU216HW,2013-02-06 10:25:00,
2013-02-06 11:30:00,37.1,29.9,29.52,WSW,248,3.6,10.3,75,0.00,,,0.00,WUHU216HW,2013-02-06 10:30:00,
2013-02-06 11:35:00,37.3,30.1,29.52,WNW,293,4.7,6.9,75,0.00,,,0.00,WUHU216HW,2013-02-06 10:35:00,
2013-02-06 11:40:00,37.4,29.9,29.52,WNW,293,4.9,6.9,74,0.00,,,0.00,WUHU216HW,2013-02-06 10:40:00,
2013-02-06 11:45:00,37.4,29.9,29.52,West,270,3.4,4.9,74,0.00,,,0.00,WUHU216HW,2013-02-06 10:45:00,
2013-02-06 11:50:00,37.8,30.2,29.52,WNW,293,4.9,4.9,74,0.00,,,0.00,WUHU216HW,2013-02-06 10:50:00,
2013-02-06 11:55:00,38.2,30.2,29.52,WNW,293,3.4,6.5,73,0.00,,,0.00,WUHU216HW,2013-02-06 10:55:00,
2013-02-06 12:00:00,38.3,29.8,29.51,West,270,4.0,6.5,71,0.00,,,0.00,WUHU216HW,2013-02-06 11:00:00,
2013-02-06 12:05:00,38.5,30.0,29.51,WNW,293,3.4,5.4,71,0.00,,,0.00,WUHU216HW,2013-02-06 11:05:00,
2013-02-06 12:10:00,39.1,30.4,29.50,WNW,293,4.5,6.3,71,0.00,,,0.00,WUHU216HW,2013-02-06 11:10:00,
2013-02-06 12:15:00,39.2,30.6,29.51,West,270,2.9,6.3,71,0.00,,,0.00,WUHU216HW,2013-02-06 11:15:00,
2013-02-06 12:20:00,39.2,29.9,29.50,West,270,4.0,7.2,69,0.00,,,0.00,WUHU216HW,2013-02-06 11:20:00,
2013-02-06 12:25:00,39.4,30.4,29.50,WSW,248,2.7,7.2,70,0.00,,,0.00,WUHU216HW,2013-02-06 11:25:00,
2013-02-06 12:30:00,40.0,31.0,29.50,West,270,1.8,4.5,70,0.00,,,0.00,WUHU216HW,2013-02-06 11:30:00,
2013-02-06 12:35:00,40.5,31.9,29.50,WNW,293,3.1,4.5,71,0.00,,,0.00,WUHU216HW,2013-02-06 11:35:00,
2013-02-06 12:40:00,41.0,31.7,29.49,West,270,6.0,6.0,69,0.00,,,0.00,WUHU216HW,2013-02-06 11:40:00,
2013-02-06 12:45:00,41.2,31.9,29.49,NW,315,2.5,6.0,69,0.00,,,0.00,WUHU216HW,2013-02-06 11:45:00,
2013-02-06 12:50:00,41.6,31.8,29.49,NNW,338,2.5,6.0,68,0.00,,,0.00,WUHU216HW,2013-02-06 11:50:00,
2013-02-06 12:55:00,41.6,31.1,29.49,WNW,293,4.0,5.4,66,0.00,,,0.00,WUHU216HW,2013-02-06 11:55:00,
2013-02-06 13:00:00,41.4,29.7,29.49,West,270,2.5,5.4,63,0.00,,,0.00,WUHU216HW,2013-02-06 12:00:00,
2013-02-06 13:05:00,41.2,31.1,29.49,NNW,338,3.1,4.0,67,0.00,,,0.00,WUHU216HW,2013-02-06 12:05:00,
2013-02-06 13:10:00,41.4,31.2,29.49,WNW,293,4.7,4.7,67,0.00,,,0.00,WUHU216HW,2013-02-06 12:10:00,
2013-02-06 13:15:00,41.8,30.4,29.48,WNW,293,5.1,5.8,64,0.00,,,0.00,WUHU216HW,2013-02-06 12:15:00,
2013-02-06 13:20:00,41.4,30.2,29.49,NW,315,3.4,5.8,64,0.00,,,0.00,WUHU216HW,2013-02-06 12:20:00,
2013-02-06 13:25:00,41.6,30.7,29.49,WSW,248,2.5,5.1,65,0.00,,,0.00,WUHU216HW,2013-02-06 12:25:00,
2013-02-06 13:30:00,41.2,30.0,29.49,West,270,4.3,4.7,64,0.00,,,0.00,WUHU216HW,2013-02-06 12:30:00,
2013-02-06 13:35:00,40.7,29.8,29.50,WNW,293,3.4,4.7,65,0.00,,,0.00,WUHU216HW,2013-02-06 12:35:00,
2013-02-06 13:40:00,40.7,30.2,29.49,West,270,3.4,5.4,66,0.00,,,0.00,WUHU216HW,2013-02-06 12:40:00,
2013-02-06 13:45:00,41.0,30.5,29.50,WSW,248,3.1,5.4,66,0.00,,,0.00,WUHU216HW,2013-02-06 12:45:00,
2013-02-06 13:50:00,41.4,31.2,29.49,WSW,248,3.8,4.9,67,0.00,,,0.00,WUHU216HW,2013-02-06 12:50:00,
2013-02-06 13:55:00,41.8,30.4,29.49,West,270,3.8,4.9,64,0.00,,,0.00,WUHU216HW,2013-02-06 12:55:00,
2013-02-06 14:00:00,41.9,31.0,29.49,SW,225,2.0,4.9,65,0.00,,,0.00,WUHU216HW,2013-02-06 13:00:00,
2013-02-06 14:06:00,41.9,30.3,29.50,West,270,5.8,5.8,63,0.00,,,0.00,WUHU216HW,2013-02-06 13:06:00,
2013-02-06 14:11:00,41.2,30.3,29.50,West,270,2.2,5.8,65,0.00,,,0.00,WUHU216HW,2013-02-06 13:11:00,
2013-02-06 14:15:00,41.2,29.5,29.50,West,270,5.1,5.8,63,0.00,,,0.00,WUHU216HW,2013-02-06 13:15:00,
2013-02-06 14:20:00,41.0,29.8,29.50,West,270,4.0,5.4,64,0.00,,,0.00,WUHU216HW,2013-02-06 13:20:00,
2013-02-06 14:26:00,40.7,29.4,29.50,WSW,248,4.0,5.6,64,0.00,,,0.00,WUHU216HW,2013-02-06 13:26:00,
2013-02-06 14:31:00,40.1,29.3,29.50,WSW,248,3.4,5.6,65,0.00,,,0.00,WUHU216HW,2013-02-06 13:31:00,
2013-02-06 14:36:00,39.8,28.5,29.51,WSW,248,2.5,4.9,64,0.00,,,0.00,WUHU216HW,2013-02-06 13:36:00,
2013-02-06 14:41:00,39.4,28.2,29.51,WSW,248,2.7,4.0,64,0.00,,,0.00,WUHU216HW,2013-02-06 13:41:00,
2013-02-06 14:46:00,39.1,28.5,29.50,WSW,248,1.3,3.8,66,0.00,,,0.00,WUHU216HW,2013-02-06 13:46:00,
2013-02-06 14:51:00,38.9,28.8,29.50,SW,225,1.3,2.0,67,0.00,,,0.00,WUHU216HW,2013-02-06 13:51:00,
2013-02-06 14:56:00,38.7,28.6,29.50,WSW,248,1.1,1.8,67,0.00,,,0.00,WUHU216HW,2013-02-06 13:56:00,
2013-02-06 15:01:00,38.5,28.8,29.50,SW,225,1.1,2.0,68,0.00,,,0.00,WUHU216HW,2013-02-06 14:01:00,
2013-02-06 15:06:00,38.5,28.8,29.50,SSW,203,1.3,2.0,68,0.00,,,0.00,WUHU216HW,2013-02-06 14:06:00,
2013-02-06 15:11:00,38.5,28.8,29.50,SW,225,1.1,1.8,68,0.00,,,0.00,WUHU216HW,2013-02-06 14:11:00,
2013-02-06 15:16:00,38.5,28.8,29.50,SW,225,2.7,2.7,68,0.00,,,0.00,WUHU216HW,2013-02-06 14:16:00,
2013-02-06 15:21:00,38.7,29.0,29.50,WSW,248,1.6,2.7,68,0.00,,,0.00,WUHU216HW,2013-02-06 14:21:00,
2013-02-06 15:26:00,38.5,28.8,29.50,WSW,248,1.1,2.7,68,0.00,,,0.00,WUHU216HW,2013-02-06 14:26:00,
2013-02-06 15:31:00,38.5,29.3,29.50,WSW,248,1.8,1.8,69,0.00,,,0.00,WUHU216HW,2013-02-06 14:31:00,
2013-02-06 15:36:00,38.3,29.1,29.50,WSW,248,1.1,1.8,69,0.00,,,0.00,WUHU216HW,2013-02-06 14:36:00,
2013-02-06 15:41:00,38.2,28.9,29.50,WSW,248,0.4,1.8,69,0.00,,,0.00,WUHU216HW,2013-02-06 14:41:00,
2013-02-06 15:46:00,38.2,28.9,29.50,WSW,248,1.1,1.3,69,0.00,,,0.00,WUHU216HW,2013-02-06 14:46:00,
2013-02-06 15:51:00,38.0,29.1,29.50,SSW,203,1.1,1.1,70,0.00,,,0.00,WUHU216HW,2013-02-06 14:51:00,
2013-02-06 15:56:00,37.8,28.5,29.50,SSW,203,1.6,1.6,69,0.00,,,0.00,WUHU216HW,2013-02-06 14:56:00,
2013-02-06 16:01:00,37.4,28.3,29.50,SW,225,1.1,1.6,69,0.00,,,0.00,WUHU216HW,2013-02-06 15:01:00,
2013-02-06 16:06:00,37.3,28.4,29.50,SSW,203,1.1,1.8,70,0.00,,,0.00,WUHU216HW,2013-02-06 15:06:00,
2013-02-06 16:11:00,37.1,28.3,29.50,SSW,203,1.3,1.8,70,0.00,,,0.00,WUHU216HW,2013-02-06 15:11:00,
2013-02-06 16:16:00,36.9,28.1,29.50,SW,225,1.8,1.8,70,0.00,,,0.00,WUHU216HW,2013-02-06 15:16:00,
2013-02-06 16:21:00,36.9,28.5,29.50,SW,225,1.1,1.8,71,0.00,,,0.00,WUHU216HW,2013-02-06 15:21:00,
2013-02-06 16:26:00,36.7,28.3,29.49,SW,225,1.3,1.8,71,0.00,,,0.00,WUHU216HW,2013-02-06 15:26:00,
2013-02-06 16:31:00,36.5,28.1,29.49,South,180,0.4,1.3,71,0.00,,,0.00,WUHU216HW,2013-02-06 15:31:00,
2013-02-06 16:36:00,36.4,27.9,29.50,South,180,0.0,1.3,71,0.00,,,0.00,WUHU216HW,2013-02-06 15:36:00,
2013-02-06 16:41:00,36.2,27.7,29.50,South,180,0.0,0.7,71,0.00,,,0.00,WUHU216HW,2013-02-06 15:41:00,
2013-02-06 16:46:00,35.6,27.2,29.50,SSE,158,1.1,1.1,71,0.00,,,0.00,WUHU216HW,2013-02-06 15:46:00,
2013-02-06 16:51:00,35.5,27.0,29.50,SSE,158,1.3,1.3,71,0.00,,,0.00,WUHU216HW,2013-02-06 15:51:00,
2013-02-06 16:56:00,34.9,26.5,29.50,SSE,158,1.1,1.3,71,0.00,,,0.00,WUHU216HW,2013-02-06 15:56:00,
2013-02-06 17:01:00,34.9,26.7,29.50,SSE,158,1.1,1.3,72,0.00,,,0.00,WUHU216HW,2013-02-06 16:01:00,
2013-02-06 17:06:00,34.6,26.4,29.50,SSE,158,0.7,1.3,72,0.00,,,0.00,WUHU216HW,2013-02-06 16:06:00,
2013-02-06 17:11:00,34.2,25.8,29.50,SSE,158,1.3,1.3,71,0.00,,,0.00,WUHU216HW,2013-02-06 16:11:00,
2013-02-06 17:16:00,33.8,25.7,29.50,SSE,158,1.3,1.3,72,0.00,,,0.00,WUHU216HW,2013-02-06 16:16:00,
2013-02-06 17:21:00,33.5,25.4,29.50,SSE,158,1.3,1.6,72,0.00,,,0.00,WUHU216HW,2013-02-06 16:21:00,
2013-02-06 17:26:00,33.1,25.4,29.50,SE,135,1.8,2.0,73,0.00,,,0.00,WUHU216HW,2013-02-06 16:26:00,
2013-02-06 17:31:00,32.9,25.2,29.50,SE,135,1.8,2.0,73,0.00,,,0.00,WUHU216HW,2013-02-06 16:31:00,
2013-02-06 17:36:00,32.8,25.0,29.50,SE,135,1.3,1.8,73,0.00,,,0.00,WUHU216HW,2013-02-06 16:36:00,
2013-02-06 17:41:00,32.6,24.8,29.51,SSE,158,1.1,1.8,73,0.00,,,0.00,WUHU216HW,2013-02-06 16:41:00,
2013-02-06 17:46:00,32.4,24.7,29.51,SE,135,1.8,1.8,73,0.00,,,0.00,WUHU216HW,2013-02-06 16:46:00,
2013-02-06 17:51:00,32.0,24.7,29.51,SE,135,1.1,1.8,74,0.00,,,0.00,WUHU216HW,2013-02-06 16:51:00,
2013-02-06 17:56:00,32.0,24.7,29.51,SE,135,1.8,1.8,74,0.00,,,0.00,WUHU216HW,2013-02-06 16:56:00,
2013-02-06 18:01:00,31.9,24.5,29.51,SSE,158,1.6,1.8,74,0.00,,,0.00,WUHU216HW,2013-02-06 17:01:00,
2013-02-06 18:06:00,31.7,24.7,29.51,SE,135,1.1,2.0,75,0.00,,,0.00,WUHU216HW,2013-02-06 17:06:00,
2013-02-06 18:11:00,31.5,24.5,29.51,SSE,158,1.1,2.0,75,0.00,,,0.00,WUHU216HW,2013-02-06 17:11:00,
2013-02-06 18:16:00,31.5,24.5,29.51,SSE,158,1.1,1.6,75,0.00,,,0.00,WUHU216HW,2013-02-06 17:16:00,
2013-02-06 18:21:00,31.3,24.7,29.52,SE,135,1.8,2.0,76,0.00,,,0.00,WUHU216HW,2013-02-06 17:21:00,
2013-02-06 18:26:00,31.1,24.5,29.52,SSE,158,1.6,2.0,76,0.00,,,0.00,WUHU216HW,2013-02-06 17:26:00,
2013-02-06 18:31:00,31.0,24.3,29.52,SE,135,1.3,2.0,76,0.00,,,0.00,WUHU216HW,2013-02-06 17:31:00,
2013-02-06 18:36:00,31.0,24.3,29.52,SE,135,1.8,1.8,76,0.00,,,0.00,WUHU216HW,2013-02-06 17:36:00,
2013-02-06 18:41:00,30.8,24.1,29.52,SE,135,1.8,2.0,76,0.00,,,0.00,WUHU216HW,2013-02-06 17:41:00,
2013-02-06 18:46:00,30.8,24.1,29.52,SSE,158,1.8,2.0,76,0.00,,,0.00,WUHU216HW,2013-02-06 17:46:00,
2013-02-06 18:51:00,30.6,24.0,29.53,SE,135,1.8,2.0,76,0.00,,,0.00,WUHU216HW,2013-02-06 17:51:00,
2013-02-06 18:56:00,30.6,24.2,29.53,SSE,158,1.3,2.2,77,0.00,,,0.00,WUHU216HW,2013-02-06 17:56:00,
2013-02-06 19:01:00,30.4,24.0,29.52,SE,135,1.3,2.2,77,0.00,,,0.00,WUHU216HW,2013-02-06 18:01:00,
2013-02-06 19:06:00,30.4,24.0,29.53,SE,135,1.8,2.0,77,0.00,,,0.00,WUHU216HW,2013-02-06 18:06:00,
2013-02-06 19:11:00,30.4,24.0,29.53,SSE,158,1.6,2.0,77,0.00,,,0.00,WUHU216HW,2013-02-06 18:11:00,
2013-02-06 19:16:00,30.2,23.9,29.53,SSE,158,0.9,1.8,77,0.00,,,0.00,WUHU216HW,2013-02-06 18:16:00,
2013-02-06 19:21:00,30.2,24.2,29.53,SSE,158,1.1,1.6,78,0.00,,,0.00,WUHU216HW,2013-02-06 18:21:00,
2013-02-06 19:26:00,30.2,24.2,29.53,SE,135,0.2,1.3,78,0.00,,,0.00,WUHU216HW,2013-02-06 18:26:00,
2013-02-06 19:31:00,30.1,24.0,29.53,SE,135,0.0,1.3,78,0.00,,,0.00,WUHU216HW,2013-02-06 18:31:00,
2013-02-06 19:36:00,29.9,23.9,29.53,SE,135,0.0,0.2,78,0.00,,,0.00,WUHU216HW,2013-02-06 18:36:00,
2013-02-06 19:41:00,29.9,23.5,29.54,SE,135,0.0,0.0,77,0.00,,,0.00,WUHU216HW,2013-02-06 18:41:00,
2013-02-06 19:46:00,29.7,23.7,29.54,SE,135,0.4,0.7,78,0.00,,,0.00,WUHU216HW,2013-02-06 18:46:00,
2013-02-06 19:51:00,29.5,23.5,29.54,SE,135,0.4,0.7,78,0.00,,,0.00,WUHU216HW,2013-02-06 18:51:00,
2013-02-06 19:56:00,29.5,23.5,29.54,SE,135,0.9,1.1,78,0.00,,,0.00,WUHU216HW,2013-02-06 18:56:00,
2013-02-06 20:01:00,29.3,23.7,29.54,SE,135,1.1,1.1,79,0.00,,,0.00,WUHU216HW,2013-02-06 19:01:00,
2013-02-06 20:06:00,29.5,23.8,29.54,SE,135,1.6,1.6,79,0.00,,,0.00,WUHU216HW,2013-02-06 19:06:00,
2013-02-06 20:11:00,29.5,23.8,29.54,SE,135,1.1,1.8,79,0.00,,,0.00,WUHU216HW,2013-02-06 19:11:00,
2013-02-06 20:16:00,29.5,23.8,29.54,SE,135,0.2,1.8,79,0.00,,,0.00,WUHU216HW,2013-02-06 19:16:00,
2013-02-06 20:21:00,29.5,23.8,29.54,SE,135,0.9,1.1,79,0.00,,,0.00,WUHU216HW,2013-02-06 19:21:00,
2013-02-06 20:26:00,29.5,23.8,29.54,SE,135,0.2,1.1,79,0.00,,,0.00,WUHU216HW,2013-02-06 19:26:00,
2013-02-06 20:31:00,29.5,23.8,29.54,SE,135,1.1,1.1,79,0.00,,,0.00,WUHU216HW,2013-02-06 19:31:00,
2013-02-06 20:36:00,29.3,23.7,29.54,SE,135,0.0,1.1,79,0.00,,,0.00,WUHU216HW,2013-02-06 19:36:00,
2013-02-06 20:41:00,29.3,23.7,29.54,SE,135,0.0,1.1,79,0.00,,,0.00,WUHU216HW,2013-02-06 19:41:00,
2013-02-06 20:46:00,29.2,23.5,29.54,SE,135,0.0,0.0,79,0.00,,,0.00,WUHU216HW,2013-02-06 19:46:00,
2013-02-06 20:51:00,29.2,23.8,29.54,SE,135,0.0,0.0,80,0.00,,,0.00,WUHU216HW,2013-02-06 19:51:00,
2013-02-06 20:56:00,29.2,23.8,29.54,West,270,0.4,0.4,80,0.00,,,0.00,WUHU216HW,2013-02-06 19:56:00,
2013-02-06 21:01:00,29.2,23.8,29.55,WSW,248,0.2,0.4,80,0.00,,,0.00,WUHU216HW,2013-02-06 20:01:00,
2013-02-06 21:06:00,29.2,23.8,29.55,WSW,248,0.0,0.4,80,0.00,,,0.00,WUHU216HW,2013-02-06 20:06:00,
2013-02-06 21:11:00,29.2,23.8,29.55,SW,225,0.2,0.4,80,0.00,,,0.00,WUHU216HW,2013-02-06 20:11:00,
2013-02-06 21:16:00,29.2,23.8,29.55,ESE,113,0.9,0.9,80,0.00,,,0.00,WUHU216HW,2013-02-06 20:16:00,
2013-02-06 21:21:00,29.0,23.6,29.55,ESE,113,0.4,0.9,80,0.00,,,0.00,WUHU216HW,2013-02-06 20:21:00,
2013-02-06 21:26:00,29.0,23.6,29.55,ESE,113,0.0,0.9,80,0.00,,,0.00,WUHU216HW,2013-02-06 20:26:00,
2013-02-06 21:31:00,29.0,23.9,29.55,ESE,113,0.4,0.7,81,0.00,,,0.00,WUHU216HW,2013-02-06 20:31:00,
2013-02-06 21:36:00,29.0,23.9,29.55,SSW,203,1.3,1.3,81,0.00,,,0.00,WUHU216HW,2013-02-06 20:36:00,
2013-02-06 21:41:00,29.0,23.9,29.55,SW,225,0.0,1.3,81,0.00,,,0.00,WUHU216HW,2013-02-06 20:41:00,
2013-02-06 21:46:00,29.0,23.9,29.55,SW,225,0.0,1.3,81,0.00,,,0.00,WUHU216HW,2013-02-06 20:46:00,
2013-02-06 21:51:00,29.0,23.9,29.55,SSW,203,0.2,0.2,81,0.00,,,0.00,WUHU216HW,2013-02-06 20:51:00,
2013-02-06 21:56:00,29.0,23.9,29.55,SSE,158,0.4,0.4,81,0.00,,,0.00,WUHU216HW,2013-02-06 20:56:00,
2013-02-06 22:01:00,29.0,24.1,29.55,SSE,158,0.0,0.4,82,0.00,,,0.00,WUHU216HW,2013-02-06 21:01:00,
2013-02-06 22:06:00,28.8,23.9,29.55,SSE,158,0.0,0.4,82,0.00,,,0.00,WUHU216HW,2013-02-06 21:06:00,
2013-02-06 22:11:00,28.8,23.9,29.55,SSE,158,0.7,0.7,82,0.00,,,0.00,WUHU216HW,2013-02-06 21:11:00,
2013-02-06 22:16:00,28.8,23.9,29.55,SSE,158,0.9,1.1,82,0.00,,,0.00,WUHU216HW,2013-02-06 21:16:00,
2013-02-06 22:21:00,28.6,23.8,29.55,SSE,158,0.4,1.1,82,0.00,,,0.00,WUHU216HW,2013-02-06 21:21:00,
2013-02-06 22:26:00,28.4,23.6,29.56,SSE,158,0.0,0.9,82,0.00,,,0.00,WUHU216HW,2013-02-06 21:26:00,
2013-02-06 22:31:00,28.4,23.6,29.56,North,0,0.4,0.7,82,0.00,,,0.00,WUHU216HW,2013-02-06 21:31:00,
2013-02-06 22:36:00,28.4,23.6,29.56,North,0,0.0,0.4,82,0.00,,,0.00,WUHU216HW,2013-02-06 21:36:00,
2013-02-06 22:41:00,28.4,23.6,29.56,East,90,0.4,0.9,82,0.00,,,0.00,WUHU216HW,2013-02-06 21:41:00,
2013-02-06 22:46:00,28.4,23.6,29.56,East,90,0.4,0.9,82,0.00,,,0.00,WUHU216HW,2013-02-06 21:46:00,
2013-02-06 22:51:00,28.3,23.4,29.56,East,90,0.7,0.9,82,0.00,,,0.00,WUHU216HW,2013-02-06 21:51:00,
2013-02-06 22:56:00,28.3,23.4,29.56,East,90,0.4,0.9,82,0.00,,,0.00,WUHU216HW,2013-02-06 21:56:00,
2013-02-06 23:01:00,28.3,23.8,29.57,East,90,0.0,0.9,83,0.00,,,0.00,WUHU216HW,2013-02-06 22:01:00,
2013-02-06 23:06:00,28.3,23.8,29.57,East,90,0.0,0.4,83,0.00,,,0.00,WUHU216HW,2013-02-06 22:06:00,
2013-02-06 23:11:00,28.1,23.6,29.57,SSW,203,0.7,0.7,83,0.00,,,0.00,WUHU216HW,2013-02-06 22:11:00,
2013-02-06 23:16:00,27.9,23.4,29.57,SSE,158,1.1,1.1,83,0.00,,,0.00,WUHU216HW,2013-02-06 22:16:00,
2013-02-06 23:21:00,27.9,23.4,29.57,SE,135,1.1,1.3,83,0.00,,,0.00,WUHU216HW,2013-02-06 22:21:00,
2013-02-06 23:26:00,27.9,23.4,29.57,SE,135,0.9,1.3,83,0.00,,,0.00,WUHU216HW,2013-02-06 22:26:00,
2013-02-06 23:32:00,27.7,23.2,29.57,SE,135,0.9,1.1,83,0.00,,,0.00,WUHU216HW,2013-02-06 22:32:00,
2013-02-06 23:37:00,27.7,23.2,29.57,SE,135,1.1,1.1,83,0.00,,,0.00,WUHU216HW,2013-02-06 22:37:00,
2013-02-06 23:42:00,27.7,23.2,29.57,SE,135,0.4,1.1,83,0.00,,,0.00,WUHU216HW,2013-02-06 22:42:00,
2013-02-06 23:47:00,27.7,23.2,29.58,SSE,158,0.0,1.1,83,0.00,,,0.00,WUHU216HW,2013-02-06 22:47:00,
2013-02-06 23:52:00,27.7,23.2,29.58,SSE,158,0.4,0.4,83,0.00,,,0.00,WUHU216HW,2013-02-06 22:52:00,
2013-02-06 23:57:00,27.7,23.2,29.58,SSE,158,0.0,0.4,83,0.00,,,0.00,WUHU216HW,2013-02-06 22:57:00,